Time;durP1;ratioP1;P1;durP2;ratioP2;P2;SDS_P1;SDS_P2;PMS_P1;PMS_P2;Temp;Humidity;BMP_temperature;BMP_pressure;BME280_temperature;BME280_humidity;BME280_pressure;Samples;Min_cycle;Max_cycle;Signal;HPM_P1;HPM_P2
2022/01/07 00:01:04;;;;;;;23.00;11.85;;;0.10;99.90;;;;;;4960277;28;20199;-73
2022/01/07 00:03:31;;;;;;;18.15;11.85;;;0.10;99.90;;;;;;4978207;28;20592;-73
2022/01/07 00:06:03;;;;;;;23.52;14.05;;;0.10;99.90;;;;;;4960505;28;20698;-73
2022/01/07 00:08:38;;;;;;;27.30;12.93;;;0.10;99.90;;;;;;4982018;28;20270;-71
2022/01/07 00:11:05;;;;;;;22.75;12.93;;;0.20;99.90;;;;;;4981237;28;20281;-73
2022/01/07 00:13:34;;;;;;;23.60;12.68;;;0.20;99.90;;;;;;4980952;28;20192;-72
2022/01/07 00:16:04;;;;;;;30.30;14.20;;;0.20;99.90;;;;;;4981169;28;20202;-70
2022/01/07 00:18:30;;;;;;;25.58;14.85;;;0.20;99.90;;;;;;4963340;28;20227;-70
2022/01/07 00:20:57;;;;;;;21.25;13.15;;;0.20;99.90;;;;;;4983639;28;20258;-70
2022/01/07 00:23:24;;;;;;;32.00;14.90;;;0.20;99.90;;;;;;4987089;28;20226;-71
2022/01/07 00:25:50;;;;;;;24.27;14.75;;;0.20;99.90;;;;;;4987279;28;20211;-71
2022/01/07 00:28:18;;;;;;;24.65;14.02;;;0.20;99.90;;;;;;4986746;28;20235;-70
2022/01/07 00:30:44;;;;;;;29.05;14.98;;;0.20;99.90;;;;;;4987780;28;20286;-73
2022/01/07 00:33:11;;;;;;;31.02;16.45;;;0.20;99.90;;;;;;4987125;28;20664;-70
2022/01/07 00:35:37;;;;;;;31.45;17.08;;;0.20;99.90;;;;;;4986754;28;20195;-70
2022/01/07 00:38:05;;;;;;;31.35;15.15;;;0.20;99.90;;;;;;4969025;28;20318;-72
2022/01/07 00:40:32;;;;;;;27.48;15.77;;;0.10;99.90;;;;;;4986282;28;20199;-70
2022/01/07 00:42:58;;;;;;;27.23;15.63;;;0.10;99.90;;;;;;4985414;28;20203;-70
2022/01/07 00:45:28;;;;;;;24.10;16.33;;;0.10;99.90;;;;;;4985983;28;20207;-71
2022/01/07 00:47:55;;;;;;;40.65;17.85;;;0.10;99.90;;;;;;4985921;28;20230;-70
2022/01/07 00:50:25;;;;;;;29.65;18.55;;;0.20;99.90;;;;;;4986317;28;20214;-70
2022/01/07 00:52:51;;;;;;;28.70;17.77;;;0.20;99.90;;;;;;4986941;28;20199;-70
2022/01/07 00:55:18;;;;;;;37.70;18.65;;;0.20;99.90;;;;;;4986579;28;20239;-70
2022/01/07 00:57:46;;;;;;;32.90;18.92;;;0.20;99.90;;;;;;4985570;28;20227;-70
2022/01/07 01:00:15;;;;;;;28.23;18.23;;;0.30;99.90;;;;;;4985963;28;20255;-71
2022/01/07 01:02:41;;;;;;;34.83;18.02;;;0.30;99.90;;;;;;4986371;28;20199;-71
2022/01/07 01:05:09;;;;;;;27.85;19.00;;;0.20;99.90;;;;;;4987014;28;20210;-71
2022/01/07 01:07:36;;;;;;;31.17;18.10;;;0.20;99.90;;;;;;4985835;28;20227;-73
2022/01/07 01:10:07;;;;;;;29.98;17.95;;;0.30;99.90;;;;;;4986355;28;20206;-70
2022/01/07 01:12:35;;;;;;;35.40;18.67;;;0.30;99.90;;;;;;4986398;28;20203;-71
2022/01/07 01:15:02;;;;;;;36.85;19.33;;;0.30;99.90;;;;;;4985584;28;20278;-71
2022/01/07 01:17:28;;;;;;;30.17;17.30;;;0.30;99.90;;;;;;4985454;28;20230;-71
2022/01/07 01:19:55;;;;;;;29.33;19.67;;;0.30;99.90;;;;;;4985175;28;20207;-71
2022/01/07 01:22:21;;;;;;;27.15;17.80;;;0.30;99.90;;;;;;4985505;28;20310;-71
2022/01/07 01:24:47;;;;;;;32.05;18.65;;;0.30;99.90;;;;;;4985945;28;20278;-71
2022/01/07 01:27:14;;;;;;;26.27;18.15;;;0.30;99.90;;;;;;4985348;28;20203;-71
2022/01/07 01:29:40;;;;;;;26.45;17.20;;;0.20;99.90;;;;;;4985426;28;20199;-71
2022/01/07 01:32:07;;;;;;;39.03;18.75;;;0.30;99.90;;;;;;4983968;28;20200;-71
2022/01/07 01:34:33;;;;;;;31.27;19.10;;;0.30;99.90;;;;;;4981872;28;20218;-70
2022/01/07 01:36:59;;;;;;;26.73;16.50;;;0.30;99.90;;;;;;4982354;28;20227;-71
2022/01/07 01:39:26;;;;;;;32.53;17.10;;;0.30;99.90;;;;;;4982021;28;20659;-71
2022/01/07 01:41:52;;;;;;;29.50;17.42;;;0.30;99.90;;;;;;4981372;28;20826;-71
2022/01/07 01:44:19;;;;;;;35.72;19.02;;;0.30;99.90;;;;;;4981855;28;20200;-71
2022/01/07 01:46:45;;;;;;;26.00;15.90;;;0.40;99.90;;;;;;4981678;28;20230;-71
2022/01/07 01:49:14;;;;;;;26.73;16.40;;;0.50;99.90;;;;;;4981735;28;20259;-72
2022/01/07 01:51:41;;;;;;;22.50;14.98;;;0.50;99.90;;;;;;4982365;28;20199;-72
2022/01/07 01:54:07;;;;;;;22.33;14.48;;;0.60;99.90;;;;;;4982238;28;20542;-70
2022/01/07 01:56:34;;;;;;;23.20;13.55;;;0.60;99.90;;;;;;4982264;28;20203;-71
2022/01/07 01:59:02;;;;;;;28.80;13.95;;;0.60;99.90;;;;;;4981855;28;20195;-71
2022/01/07 02:01:29;;;;;;;22.98;13.77;;;0.70;99.90;;;;;;4962747;28;20199;-70
2022/01/07 02:03:55;;;;;;;22.13;13.25;;;0.70;99.90;;;;;;4980716;28;20604;-71
2022/01/07 02:06:23;;;;;;;20.73;12.23;;;0.70;99.90;;;;;;4980664;28;20306;-71
2022/01/07 02:08:50;;;;;;;22.27;12.60;;;0.70;99.90;;;;;;4980405;28;20206;-70
2022/01/07 02:11:17;;;;;;;21.30;12.80;;;0.80;99.90;;;;;;4981705;28;20203;-70
2022/01/07 02:13:47;;;;;;;21.40;13.52;;;0.70;99.90;;;;;;4980686;28;20199;-70
2022/01/07 02:16:13;;;;;;;20.52;12.68;;;0.70;99.90;;;;;;4982159;28;20294;-70
2022/01/07 02:18:42;;;;;;;21.48;12.45;;;0.70;99.90;;;;;;4981404;28;20219;-71
2022/01/07 02:21:09;;;;;;;21.17;13.02;;;0.70;99.90;;;;;;4980320;28;20613;-71
2022/01/07 02:23:36;;;;;;;19.50;13.07;;;0.60;99.90;;;;;;4981215;28;20654;-70
2022/01/07 02:26:03;;;;;;;20.48;11.40;;;0.60;99.90;;;;;;4980562;28;20204;-70
2022/01/07 02:28:33;;;;;;;21.10;13.50;;;0.60;99.90;;;;;;4980699;28;20270;-70
2022/01/07 02:30:59;;;;;;;16.60;11.70;;;0.60;99.90;;;;;;4980080;28;20662;-71
2022/01/07 02:33:26;;;;;;;21.90;12.38;;;0.50;99.90;;;;;;4979963;28;20211;-71
2022/01/07 02:35:52;;;;;;;24.95;14.40;;;0.50;99.90;;;;;;4980578;28;20206;-70
2022/01/07 02:38:23;;;;;;;19.02;12.05;;;0.50;99.90;;;;;;4979586;28;20219;-69
2022/01/07 02:40:49;;;;;;;20.63;13.40;;;0.50;99.90;;;;;;4979919;28;20202;-71
2022/01/07 02:43:18;;;;;;;19.92;13.05;;;0.50;99.90;;;;;;4979246;28;20210;-70
2022/01/07 02:45:46;;;;;;;21.23;13.40;;;0.40;99.90;;;;;;4979946;28;20270;-69
2022/01/07 02:48:13;;;;;;;17.63;12.35;;;0.40;99.90;;;;;;4979504;28;20663;-70
2022/01/07 02:50:43;;;;;;;19.33;12.88;;;0.40;99.90;;;;;;4979026;28;20212;-70
2022/01/07 02:53:10;;;;;;;16.88;12.90;;;0.40;99.90;;;;;;4987462;28;20689;-71
2022/01/07 02:55:38;;;;;;;22.30;13.77;;;0.50;99.90;;;;;;4978506;28;20214;-71
2022/01/07 02:58:05;;;;;;;17.17;12.90;;;0.50;99.90;;;;;;4980094;28;20227;-71
2022/01/07 03:00:32;;;;;;;17.30;12.70;;;0.50;99.90;;;;;;4979067;28;20208;-71
2022/01/07 03:03:00;;;;;;;16.50;11.73;;;0.50;99.90;;;;;;4980035;28;20211;-71
2022/01/07 03:05:27;;;;;;;20.20;13.50;;;0.40;99.90;;;;;;4960812;28;20208;-71
2022/01/07 03:07:54;;;;;;;20.83;12.15;;;0.40;99.90;;;;;;4961440;28;20219;-71
2022/01/07 03:10:27;;;;;;;26.00;12.68;;;0.40;99.90;;;;;;4981643;28;20288;-71
2022/01/07 03:12:56;;;;;;;20.15;12.50;;;0.30;99.90;;;;;;4979051;28;20186;-71
2022/01/07 03:15:23;;;;;;;27.13;13.98;;;0.30;99.90;;;;;;4979487;28;20207;-71
2022/01/07 03:17:55;;;;;;;37.50;21.13;;;0.30;99.90;;;;;;4976972;28;20223;-71
2022/01/07 03:20:21;;;;;;;24.38;12.65;;;0.30;99.90;;;;;;4979208;28;20338;-72
2022/01/07 03:22:49;;;;;;;24.10;14.70;;;0.30;99.90;;;;;;4978498;28;20742;-71
2022/01/07 03:25:17;;;;;;;23.00;14.38;;;0.30;99.90;;;;;;4979412;28;20200;-71
2022/01/07 03:27:45;;;;;;;19.58;12.77;;;0.30;99.90;;;;;;4978701;28;20262;-71
2022/01/07 03:30:14;;;;;;;14.52;12.13;;;0.30;99.90;;;;;;4977000;28;20195;-72
2022/01/07 03:32:41;;;;;;;20.85;12.70;;;0.30;99.90;;;;;;4977387;28;20206;-71
2022/01/07 03:35:11;;;;;;;19.63;13.00;;;0.30;99.90;;;;;;4978892;28;20195;-71
2022/01/07 03:37:42;;;;;;;22.73;12.38;;;0.20;99.90;;;;;;4976580;28;20226;-71
2022/01/07 03:40:10;;;;;;;18.17;12.32;;;0.20;99.90;;;;;;4978052;28;20210;-71
2022/01/07 03:42:37;;;;;;;21.30;13.05;;;0.20;99.90;;;;;;4979324;28;20238;-71
2022/01/07 03:45:05;;;;;;;23.23;13.68;;;0.20;99.90;;;;;;4978764;28;20203;-71
2022/01/07 03:47:31;;;;;;;28.10;13.02;;;0.20;99.90;;;;;;4979066;28;20206;-71
2022/01/07 03:49:58;;;;;;;18.85;12.23;;;0.20;99.90;;;;;;4979091;28;20227;-71
2022/01/07 03:52:24;;;;;;;24.15;13.70;;;0.20;99.90;;;;;;4986707;28;20203;-71
2022/01/07 03:54:51;;;;;;;23.83;13.48;;;0.20;99.90;;;;;;4978696;28;20207;-71
2022/01/07 03:57:20;;;;;;;21.77;13.45;;;0.20;99.90;;;;;;4978677;28;20223;-71
2022/01/07 03:59:47;;;;;;;19.92;12.98;;;0.20;99.90;;;;;;4978682;28;20199;-72
2022/01/07 04:02:13;;;;;;;19.70;12.40;;;0.20;99.90;;;;;;4978422;28;20207;-71
2022/01/07 04:04:40;;;;;;;24.50;13.73;;;0.20;99.90;;;;;;4996815;28;20796;-71
2022/01/07 04:07:06;;;;;;;21.27;12.25;;;0.20;99.90;;;;;;4979351;28;20218;-71
2022/01/07 04:09:32;;;;;;;25.27;13.60;;;0.20;99.90;;;;;;5001113;28;20262;-71
2022/01/07 04:11:59;;;;;;;23.83;13.68;;;0.20;99.90;;;;;;4998275;28;20214;-71
2022/01/07 04:14:28;;;;;;;18.90;12.43;;;0.20;99.90;;;;;;4997727;28;20203;-71
2022/01/07 04:16:59;;;;;;;19.70;11.90;;;0.20;99.90;;;;;;4996825;28;20686;-71
2022/01/07 04:19:25;;;;;;;20.73;13.07;;;0.20;99.90;;;;;;4997172;28;20228;-71
2022/01/07 04:21:51;;;;;;;22.67;13.93;;;0.20;99.90;;;;;;4980659;28;20226;-71
2022/01/07 04:24:18;;;;;;;23.63;15.00;;;0.30;99.90;;;;;;4997598;28;20537;-71
2022/01/07 04:26:45;;;;;;;22.27;15.32;;;0.30;99.90;;;;;;4980079;28;20195;-71
2022/01/07 04:29:12;;;;;;;20.35;15.70;;;0.30;99.90;;;;;;4997935;28;20211;-71
2022/01/07 04:31:38;;;;;;;21.85;14.88;;;0.40;99.90;;;;;;4998197;28;20207;-71
2022/01/07 04:34:05;;;;;;;23.23;14.80;;;0.40;99.90;;;;;;4999065;28;20213;-71
2022/01/07 04:36:32;;;;;;;23.08;15.82;;;0.40;99.90;;;;;;5002305;28;20285;-71
2022/01/07 04:39:02;;;;;;;26.20;15.13;;;0.40;99.90;;;;;;4999569;28;20222;-71
2022/01/07 04:41:29;;;;;;;26.67;15.70;;;0.40;99.90;;;;;;4998507;28;20285;-72
2022/01/07 04:43:55;;;;;;;24.42;16.45;;;0.40;99.90;;;;;;4996945;28;20583;-71
2022/01/07 04:46:22;;;;;;;24.65;15.60;;;0.40;99.90;;;;;;4998376;28;20262;-72
2022/01/07 04:48:48;;;;;;;27.50;15.93;;;0.40;99.90;;;;;;4998711;28;20262;-71
2022/01/07 04:51:15;;;;;;;25.58;16.63;;;0.40;99.90;;;;;;4981179;28;20218;-71
2022/01/07 04:53:41;;;;;;;26.35;18.00;;;0.50;99.90;;;;;;4997698;28;20627;-71
2022/01/07 04:56:07;;;;;;;25.80;16.30;;;0.50;99.90;;;;;;4998345;28;20289;-71
2022/01/07 04:58:34;;;;;;;31.20;17.63;;;0.50;99.90;;;;;;4998552;28;20233;-71
2022/01/07 05:01:00;;;;;;;38.42;19.35;;;0.50;99.90;;;;;;4980519;28;20202;-71
2022/01/07 05:03:27;;;;;;;30.02;18.10;;;0.50;99.90;;;;;;4997340;28;20209;-72
2022/01/07 05:06:04;;;;;;;27.55;17.98;;;0.50;99.90;;;;;;4998636;28;20230;-71
2022/01/07 05:08:30;;;;;;;34.88;20.02;;;0.50;99.90;;;;;;5002098;28;20206;-71
2022/01/07 05:10:56;;;;;;;29.33;17.02;;;0.50;99.90;;;;;;5002961;28;20290;-72
2022/01/07 05:13:25;;;;;;;36.17;18.65;;;0.60;99.90;;;;;;5005503;28;20222;-71
2022/01/07 05:15:52;;;;;;;35.22;20.83;;;0.60;99.90;;;;;;5002613;28;20203;-71
2022/01/07 05:18:18;;;;;;;32.72;19.65;;;0.60;99.90;;;;;;5001722;28;20223;-71
2022/01/07 05:20:46;;;;;;;37.00;21.48;;;0.60;99.90;;;;;;5002395;28;20214;-71
2022/01/07 05:23:13;;;;;;;31.88;20.30;;;0.60;99.90;;;;;;4999664;28;20781;-71
2022/01/07 05:25:40;;;;;;;32.22;19.60;;;0.60;99.90;;;;;;5002377;28;20690;-71
2022/01/07 05:28:07;;;;;;;35.17;21.55;;;0.60;99.90;;;;;;5002799;28;20207;-71
2022/01/07 05:30:33;;;;;;;37.92;21.23;;;0.60;99.90;;;;;;5002272;28;20217;-71
2022/01/07 05:33:00;;;;;;;34.42;20.58;;;0.60;99.90;;;;;;5003028;28;20294;-71
2022/01/07 05:35:29;;;;;;;31.50;21.27;;;0.60;99.90;;;;;;5005549;28;20270;-71
2022/01/07 05:37:56;;;;;;;40.53;20.20;;;0.70;99.90;;;;;;4995790;28;20230;-71
2022/01/07 05:40:23;;;;;;;27.35;19.48;;;0.70;99.90;;;;;;5014807;28;20670;-71
2022/01/07 05:42:50;;;;;;;29.70;20.75;;;0.70;99.90;;;;;;4997505;28;20206;-71
2022/01/07 05:45:25;;;;;;;36.83;22.27;;;0.70;99.90;;;;;;5013660;28;20210;-71
2022/01/07 05:47:51;;;;;;;30.70;18.67;;;0.70;99.90;;;;;;5012432;28;20206;-71
2022/01/07 05:50:17;;;;;;;33.33;20.38;;;0.70;99.90;;;;;;5001141;28;20277;-71
2022/01/07 05:52:44;;;;;;;42.40;21.65;;;0.70;99.90;;;;;;5000841;28;20203;-71
2022/01/07 05:55:10;;;;;;;30.88;19.90;;;0.80;99.90;;;;;;4968812;28;20258;-71
2022/01/07 05:57:36;;;;;;;32.30;20.65;;;0.70;99.90;;;;;;5001464;28;20210;-71
2022/01/07 06:00:06;;;;;;;31.88;22.00;;;0.80;99.90;;;;;;5001919;28;20199;-71
2022/01/07 06:02:33;;;;;;;32.55;21.15;;;0.80;99.90;;;;;;4986249;28;20209;-71
2022/01/07 06:04:59;;;;;;;36.60;22.30;;;0.80;99.90;;;;;;5000443;28;20580;-71
2022/01/07 06:07:25;;;;;;;32.30;20.33;;;0.80;99.90;;;;;;5002131;28;20298;-71
2022/01/07 06:09:51;;;;;;;30.40;19.83;;;0.80;99.90;;;;;;5001016;28;20231;-71
2022/01/07 06:12:18;;;;;;;33.08;21.15;;;0.80;99.90;;;;;;5001945;28;20198;-71
2022/01/07 06:14:44;;;;;;;29.02;19.48;;;0.80;99.90;;;;;;4981557;28;20212;-71
2022/01/07 06:17:11;;;;;;;30.95;20.90;;;0.80;99.90;;;;;;4982014;28;20206;-71
2022/01/07 06:19:38;;;;;;;37.10;21.70;;;0.80;99.90;;;;;;4984177;28;20748;-71
2022/01/07 06:22:05;;;;;;;31.88;20.95;;;0.80;99.90;;;;;;4966854;28;20231;-71
2022/01/07 06:24:31;;;;;;;34.88;20.98;;;0.80;99.90;;;;;;4981242;28;20278;-71
2022/01/07 06:26:58;;;;;;;51.85;20.88;;;0.90;99.90;;;;;;4980603;28;20278;-71
2022/01/07 06:29:25;;;;;;;34.83;19.40;;;0.80;99.90;;;;;;4980640;28;20206;-71
2022/01/07 06:31:51;;;;;;;33.78;19.73;;;0.90;99.90;;;;;;4963370;28;20346;-72
2022/01/07 06:34:20;;;;;;;33.20;20.63;;;0.90;99.90;;;;;;4982409;28;20204;-71
2022/01/07 06:36:50;;;;;;;29.40;19.52;;;0.80;99.90;;;;;;4981660;28;20195;-71
2022/01/07 06:39:22;;;;;;;30.05;20.48;;;0.90;99.90;;;;;;4981112;28;20234;-72
2022/01/07 06:41:50;;;;;;;33.70;21.17;;;0.90;99.90;;;;;;4979983;28;20212;-71
2022/01/07 06:44:18;;;;;;;26.85;19.83;;;0.90;99.90;;;;;;4980756;28;20206;-71
2022/01/07 06:46:44;;;;;;;31.65;18.20;;;0.90;99.90;;;;;;4980910;28;20721;-71
2022/01/07 06:49:11;;;;;;;29.80;21.42;;;0.90;99.90;;;;;;4980647;28;20218;-71
2022/01/07 06:51:37;;;;;;;29.92;18.55;;;0.90;99.90;;;;;;4981130;28;20290;-71
2022/01/07 06:54:04;;;;;;;30.73;19.63;;;0.90;99.90;;;;;;4980909;28;20258;-71
2022/01/07 06:56:30;;;;;;;30.00;18.25;;;1.00;99.90;;;;;;4980306;28;20349;-71
2022/01/07 06:58:57;;;;;;;29.75;19.48;;;1.00;99.90;;;;;;4964262;28;20270;-71
2022/01/07 07:01:23;;;;;;;28.08;18.92;;;1.00;99.90;;;;;;4982776;28;20210;-71
2022/01/07 07:03:50;;;;;;;26.35;18.08;;;1.00;99.90;;;;;;4981844;28;20199;-70
2022/01/07 07:06:16;;;;;;;28.27;18.67;;;1.00;99.90;;;;;;4981179;28;20277;-70
2022/01/07 07:08:43;;;;;;;23.83;16.13;;;1.00;99.90;;;;;;4980719;28;20207;-70
2022/01/07 07:11:09;;;;;;;25.80;17.05;;;1.00;99.90;;;;;;4979406;28;20214;-71
2022/01/07 07:13:36;;;;;;;30.38;18.45;;;1.00;99.90;;;;;;4981329;28;20211;-71
2022/01/07 07:16:02;;;;;;;23.98;17.00;;;1.10;99.90;;;;;;4980434;28;20210;-71
2022/01/07 07:18:29;;;;;;;29.35;17.33;;;1.10;99.90;;;;;;4979323;28;20223;-70
2022/01/07 07:20:56;;;;;;;30.77;17.80;;;1.10;99.90;;;;;;4979800;28;20203;-71
2022/01/07 07:23:22;;;;;;;25.10;17.13;;;1.10;99.90;;;;;;4980928;28;20235;-70
2022/01/07 07:25:49;;;;;;;30.35;17.85;;;1.10;99.90;;;;;;4979356;28;20211;-72
2022/01/07 07:28:16;;;;;;;26.77;16.90;;;1.10;99.90;;;;;;4980659;28;20267;-71
2022/01/07 07:30:43;;;;;;;26.00;16.63;;;1.10;99.90;;;;;;4979175;28;20210;-70
2022/01/07 07:38:41;;;;;;;23.23;15.48;;;1.10;99.90;;;;;;4998421;28;20207;-70
2022/01/07 07:41:10;;;;;;;25.42;16.25;;;1.20;99.90;;;;;;5001616;28;20214;-70
2022/01/07 07:43:37;;;;;;;27.70;16.17;;;1.30;99.90;;;;;;5006088;28;20206;-70
2022/01/07 07:46:05;;;;;;;28.02;15.48;;;1.30;99.90;;;;;;5009847;28;20244;-70
2022/01/07 07:48:32;;;;;;;24.70;17.38;;;1.20;99.90;;;;;;5009672;28;20245;-70
2022/01/07 07:50:58;;;;;;;25.67;15.05;;;1.30;99.90;;;;;;5009308;28;20206;-69
2022/01/07 07:53:26;;;;;;;21.77;15.75;;;1.30;99.90;;;;;;5008197;28;20214;-69
2022/01/07 07:55:55;;;;;;;25.92;17.77;;;1.20;99.90;;;;;;5004894;28;20281;-70
2022/01/07 07:58:23;;;;;;;24.50;16.50;;;1.30;99.90;;;;;;5000115;28;20229;-68
2022/01/07 08:00:50;;;;;;;22.52;14.93;;;1.30;99.90;;;;;;4998144;28;20194;-68
2022/01/07 08:03:17;;;;;;;21.58;15.38;;;1.20;99.90;;;;;;4998837;28;20220;-69
2022/01/07 08:05:43;;;;;;;21.70;16.65;;;1.30;99.90;;;;;;4999054;28;20209;-69
2022/01/07 08:08:13;;;;;;;23.00;15.55;;;1.30;99.90;;;;;;5000414;28;20198;-69
2022/01/07 08:10:46;;;;;;;23.60;15.15;;;1.30;99.90;;;;;;5000227;28;20205;-69
2022/01/07 08:15:58;;;;;;;23.27;13.88;;;1.30;99.90;;;;;;4999710;28;20527;-69
2022/01/07 08:18:35;;;;;;;23.63;13.73;;;1.30;99.90;;;;;;4999973;28;20227;-70
2022/01/07 08:21:08;;;;;;;21.77;14.25;;;1.40;99.90;;;;;;5001146;28;20199;-70
2022/01/07 08:23:36;;;;;;;21.58;13.30;;;1.40;99.90;;;;;;5002108;28;20187;-70
2022/01/07 08:26:04;;;;;;;20.23;14.27;;;1.40;99.90;;;;;;4999858;28;20201;-70
2022/01/07 08:28:37;;;;;;;27.23;14.93;;;1.40;99.90;;;;;;5000837;28;20282;-70
2022/01/07 08:36:20;;;;;;;20.50;12.57;;;1.40;99.90;;;;;;5001629;28;20194;-70
2022/01/07 08:38:48;;;;;;;23.45;11.07;;;1.50;99.90;;;;;;5001801;28;20309;-70
2022/01/07 08:41:16;;;;;;;15.85;12.30;;;1.50;99.90;;;;;;5001942;28;20254;-69
2022/01/07 08:43:43;;;;;;;14.85;11.90;;;1.50;99.90;;;;;;4988588;28;20643;-69
2022/01/07 08:46:12;;;;;;;17.98;12.25;;;1.60;99.90;;;;;;4985093;28;20658;-69
2022/01/07 08:48:39;;;;;;;19.02;12.40;;;1.60;99.90;;;;;;5005233;28;20550;-70
2022/01/07 08:51:07;;;;;;;21.35;13.38;;;1.60;99.90;;;;;;5004391;28;20565;-70
2022/01/07 08:53:34;;;;;;;20.75;12.25;;;1.60;99.90;;;;;;5003837;28;20202;-70
2022/01/07 08:56:01;;;;;;;14.80;11.13;;;1.60;99.90;;;;;;5003753;28;20572;-69
2022/01/07 08:58:28;;;;;;;14.40;11.93;;;1.70;99.90;;;;;;5003534;28;20227;-68
2022/01/07 09:00:56;;;;;;;12.30;10.15;;;1.70;99.90;;;;;;4984751;28;20217;-69
2022/01/07 09:03:23;;;;;;;16.42;10.68;;;1.70;99.90;;;;;;4986187;28;20186;-68
2022/01/07 09:05:50;;;;;;;14.80;11.80;;;1.70;99.90;;;;;;5004338;28;20301;-69
2022/01/07 09:08:16;;;;;;;14.95;10.32;;;1.80;99.90;;;;;;5004076;28;20203;-70
2022/01/07 09:10:43;;;;;;;13.73;10.10;;;1.80;99.90;;;;;;5002898;28;20281;-69
2022/01/07 09:13:10;;;;;;;12.70;9.05;;;1.80;99.90;;;;;;5003804;28;20202;-70
2022/01/07 09:15:38;;;;;;;12.98;9.95;;;1.80;99.90;;;;;;5002568;28;20207;-69
2022/01/07 09:18:10;;;;;;;15.30;11.30;;;1.80;99.90;;;;;;4985525;28;20202;-69
2022/01/07 09:20:40;;;;;;;13.93;11.10;;;1.80;99.90;;;;;;4985225;28;20669;-69
2022/01/07 09:23:08;;;;;;;16.15;11.60;;;1.80;99.90;;;;;;5003427;28;20286;-70
2022/01/07 09:25:35;;;;;;;17.08;11.65;;;1.80;99.90;;;;;;5003433;28;20202;-70
2022/01/07 09:28:02;;;;;;;17.95;11.68;;;1.80;99.90;;;;;;5003299;28;20286;-69
2022/01/07 09:30:29;;;;;;;16.73;10.95;;;1.80;99.90;;;;;;5002864;28;20199;-69
2022/01/07 09:32:55;;;;;;;15.73;10.80;;;1.70;99.90;;;;;;5003078;28;20198;-69
2022/01/07 09:35:22;;;;;;;16.38;11.55;;;1.80;99.90;;;;;;4985103;28;20234;-70
2022/01/07 09:37:50;;;;;;;16.35;10.63;;;1.80;99.90;;;;;;5003546;28;20199;-70
2022/01/07 09:40:17;;;;;;;14.95;10.80;;;1.80;99.90;;;;;;4985508;28;20253;-69
2022/01/07 09:43:06;;;;;;;14.60;10.70;;;1.80;99.90;;;;;;5003318;28;20206;-70
2022/01/07 09:45:35;;;;;;;15.73;10.02;;;1.80;99.90;;;;;;5000817;28;20210;-69
2022/01/07 09:48:03;;;;;;;15.18;11.60;;;1.70;99.90;;;;;;5002594;28;20210;-69
2022/01/07 09:50:31;;;;;;;13.95;10.00;;;1.80;99.90;;;;;;5001062;28;20203;-70
2022/01/07 09:52:57;;;;;;;16.15;11.10;;;1.70;99.90;;;;;;4983266;28;20207;-69
2022/01/07 09:55:24;;;;;;;18.77;12.10;;;1.70;99.90;;;;;;5002038;28;20210;-69
2022/01/07 09:57:50;;;;;;;19.50;11.63;;;1.70;99.90;;;;;;5002392;28;20213;-69
2022/01/07 10:00:17;;;;;;;13.95;10.23;;;1.70;99.90;;;;;;5001120;28;20714;-70
2022/01/07 10:03:14;;;;;;;18.15;11.77;;;1.70;99.90;;;;;;5004270;28;20194;-70
2022/01/07 10:05:42;;;;;;;17.48;12.90;;;1.70;99.90;;;;;;5003426;28;20183;-69
2022/01/07 10:08:29;;;;;;;20.45;11.90;;;1.70;99.90;;;;;;5004441;28;20659;-69
2022/01/07 10:11:18;;;;;;;18.15;10.65;;;1.80;99.90;;;;;;5003708;28;20283;-71
2022/01/07 10:14:06;;;;;;;24.60;11.63;;;1.70;99.90;;;;;;5002468;28;20203;-70
2022/01/07 10:16:53;;;;;;;17.92;11.90;;;1.80;99.90;;;;;;4985452;28;20238;-70
2022/01/07 10:19:32;;;;;;;22.70;11.50;;;1.80;99.90;;;;;;5003647;28;20207;-70
2022/01/07 10:22:07;;;;;;;20.75;12.68;;;1.90;99.90;;;;;;5003254;28;20231;-70
2022/01/07 10:24:56;;;;;;;18.15;12.43;;;2.00;99.90;;;;;;5002668;28;20666;-70
2022/01/07 10:27:33;;;;;;;19.45;13.40;;;1.80;99.90;;;;;;5001276;28;20249;-70
2022/01/07 10:30:00;;;;;;;19.38;11.18;;;1.80;99.90;;;;;;5001382;28;20205;-70
2022/01/07 10:32:29;;;;;;;13.65;10.85;;;1.80;99.90;;;;;;4983838;28;20294;-70
2022/01/07 10:35:08;;;;;;;17.80;10.70;;;2.00;99.90;;;;;;5000388;28;20586;-70
2022/01/07 10:37:59;;;;;;;20.50;10.35;;;1.90;99.90;;;;;;5000798;28;20214;-70
2022/01/07 10:40:33;;;;;;;17.15;11.55;;;1.90;99.90;;;;;;4989673;28;20226;-70
2022/01/07 10:43:24;;;;;;;18.15;10.60;;;2.10;99.90;;;;;;5000276;28;20602;-70
2022/01/07 10:45:53;;;;;;;12.90;11.10;;;2.00;99.90;;;;;;5000681;28;20638;-71
2022/01/07 10:48:22;;;;;;;16.08;9.98;;;2.10;99.90;;;;;;5000960;28;20210;-70
2022/01/07 10:50:53;;;;;;;16.02;10.70;;;2.00;99.90;;;;;;5000639;28;20214;-70
2022/01/07 10:53:26;;;;;;;16.00;10.93;;;1.90;99.90;;;;;;5000526;28;20202;-70
2022/01/07 10:56:12;;;;;;;19.25;12.73;;;1.90;99.90;;;;;;5000139;28;20198;-70
2022/01/07 10:58:46;;;;;;;14.43;11.30;;;2.00;99.90;;;;;;5000658;28;20241;-70
2022/01/07 11:01:19;;;;;;;14.93;9.70;;;2.00;99.90;;;;;;5000899;28;20206;-70
2022/01/07 11:03:48;;;;;;;16.42;11.88;;;1.90;99.90;;;;;;5001845;28;20191;-70
2022/01/07 11:06:14;;;;;;;16.02;10.40;;;2.20;99.90;;;;;;4983595;28;20226;-70
2022/01/07 11:08:41;;;;;;;13.35;10.38;;;2.20;99.90;;;;;;5000339;28;20282;-71
2022/01/07 11:11:10;;;;;;;15.32;9.73;;;2.20;99.90;;;;;;5001787;28;20206;-71
2022/01/07 11:13:37;;;;;;;11.77;8.63;;;2.30;99.90;;;;;;4985203;28;20206;-72
2022/01/07 11:16:05;;;;;;;12.20;9.20;;;2.30;99.90;;;;;;5001902;28;20202;-70
2022/01/07 11:18:35;;;;;;;12.73;9.02;;;2.20;99.90;;;;;;5001240;28;20289;-70
2022/01/07 11:21:03;;;;;;;21.77;9.38;;;2.10;99.90;;;;;;4999718;28;20639;-70
2022/01/07 11:23:31;;;;;;;17.63;10.95;;;2.10;99.90;;;;;;5001513;28;20543;-70
2022/01/07 11:26:05;;;;;;;14.05;10.00;;;2.00;99.90;;;;;;5000973;28;20691;-71
2022/01/07 11:28:32;;;;;;;18.83;11.02;;;2.00;99.90;;;;;;5001033;28;20191;-70
2022/01/07 11:31:13;;;;;;;15.63;11.98;;;1.90;99.90;;;;;;4998818;28;20202;-70
2022/01/07 11:33:41;;;;;;;18.58;10.60;;;1.90;99.90;;;;;;4983396;28;20279;-70
2022/01/07 11:36:12;;;;;;;17.58;12.85;;;1.90;99.90;;;;;;4983466;28;20705;-70
2022/01/07 11:38:44;;;;;;;19.00;12.07;;;1.80;99.90;;;;;;5000480;28;20646;-71
2022/01/07 11:41:32;;;;;;;22.27;11.20;;;1.90;99.90;;;;;;5000756;28;20273;-71
2022/01/07 11:44:10;;;;;;;14.15;10.75;;;1.90;99.90;;;;;;5000402;28;20213;-70
2022/01/07 11:46:36;;;;;;;20.50;13.18;;;2.00;99.90;;;;;;4999847;28;20186;-71
2022/01/07 11:49:03;;;;;;;13.90;11.32;;;1.90;99.90;;;;;;5001132;28;20353;-71
2022/01/07 11:51:38;;;;;;;24.50;12.65;;;1.90;99.90;;;;;;5001079;28;20213;-71
2022/01/07 11:54:09;;;;;;;19.27;12.95;;;1.90;99.90;;;;;;5001319;28;20205;-71
2022/01/07 11:56:37;;;;;;;20.10;13.45;;;1.90;99.90;;;;;;4983614;28;20281;-71
2022/01/07 11:59:12;;;;;;;20.63;12.27;;;1.90;99.90;;;;;;5001327;28;20218;-70
2022/01/07 12:01:42;;;;;;;21.92;12.65;;;2.00;99.90;;;;;;5001187;28;20209;-70
2022/01/07 12:04:15;;;;;;;18.38;12.40;;;2.00;99.90;;;;;;5000341;28;20210;-70
2022/01/07 12:06:44;;;;;;;21.30;13.32;;;2.00;99.90;;;;;;4983889;28;20226;-71
2022/01/07 12:09:25;;;;;;;18.58;12.20;;;2.00;99.90;;;;;;4983315;28;20199;-70
2022/01/07 12:11:54;;;;;;;21.25;13.02;;;1.90;99.90;;;;;;5000749;28;20740;-70
2022/01/07 12:14:26;;;;;;;17.85;12.75;;;2.00;99.90;;;;;;5000881;28;20266;-71
2022/01/07 12:16:55;;;;;;;17.75;12.25;;;2.00;99.90;;;;;;5005869;28;20278;-72
2022/01/07 12:19:40;;;;;;;16.45;12.95;;;2.10;99.90;;;;;;5000706;28;20226;-71
2022/01/07 12:22:11;;;;;;;19.25;11.85;;;2.20;99.90;;;;;;4992115;28;20234;-70
2022/01/07 12:24:38;;;;;;;22.67;12.10;;;2.10;99.90;;;;;;4992103;28;20209;-70
2022/01/07 12:27:10;;;;;;;21.98;12.63;;;2.20;99.90;;;;;;5011519;28;20230;-70
2022/01/07 12:29:42;;;;;;;15.70;11.52;;;2.20;99.90;;;;;;5013285;28;20222;-70
2022/01/07 12:32:14;;;;;;;12.77;9.02;;;2.20;99.90;;;;;;5014518;28;20206;-71
2022/01/07 12:34:47;;;;;;;20.95;12.32;;;2.20;99.90;;;;;;4996967;28;20198;-71
2022/01/07 12:37:20;;;;;;;16.63;10.98;;;2.20;99.90;;;;;;5014129;28;20241;-71
2022/01/07 12:39:55;;;;;;;13.90;10.27;;;2.20;99.90;;;;;;5013439;28;20229;-70
2022/01/07 12:42:27;;;;;;;15.32;11.05;;;2.20;99.90;;;;;;4997345;28;20186;-70
2022/01/07 12:44:57;;;;;;;11.75;9.45;;;2.20;99.90;;;;;;5012039;28;20209;-71
2022/01/07 12:47:28;;;;;;;18.48;10.30;;;2.30;99.90;;;;;;4992135;28;20197;-70
2022/01/07 12:49:57;;;;;;;11.57;9.00;;;2.20;99.90;;;;;;5000240;28;20316;-70
2022/01/07 12:52:26;;;;;;;15.90;10.20;;;2.30;99.90;;;;;;4989434;28;20254;-70
2022/01/07 12:54:59;;;;;;;15.65;11.13;;;2.30;99.90;;;;;;4990644;28;20211;-71
2022/01/07 12:57:47;;;;;;;15.25;9.10;;;2.30;99.90;;;;;;4993927;28;20226;-70
2022/01/07 13:00:27;;;;;;;14.23;9.57;;;2.30;99.90;;;;;;5010636;28;20219;-71